sensor_id;sensor_type;location;lat;lon;timestamp;P1;durP1;ratioP1;P2;durP2;ratioP2
68250;SDS011;55066;51.560;4.642;2023-05-14T00:02:16;26.50;;;12.98;;
68250;SDS011;55066;51.560;4.642;2023-05-14T00:04:42;26.38;;;13.68;;
68250;SDS011;55066;51.560;4.642;2023-05-14T00:07:07;27.63;;;13.70;;
68250;SDS011;55066;51.560;4.642;2023-05-14T00:09:32;23.90;;;13.60;;
68250;SDS011;55066;51.560;4.642;2023-05-14T00:11:59;27.08;;;14.38;;
68250;SDS011;55066;51.560;4.642;2023-05-14T00:14:24;26.63;;;13.97;;
68250;SDS011;55066;51.560;4.642;2023-05-14T00:16:50;27.52;;;14.80;;
68250;SDS011;55066;51.560;4.642;2023-05-14T00:19:15;28.77;;;13.77;;
68250;SDS011;55066;51.560;4.642;2023-05-14T00:21:41;28.53;;;14.83;;
68250;SDS011;55066;51.560;4.642;2023-05-14T00:24:06;23.50;;;12.93;;
68250;SDS011;55066;51.560;4.642;2023-05-14T00:26:32;25.57;;;14.97;;
68250;SDS011;55066;51.560;4.642;2023-05-14T00:28:57;28.85;;;14.95;;
68250;SDS011;55066;51.560;4.642;2023-05-14T00:31:23;33.77;;;15.33;;
68250;SDS011;55066;51.560;4.642;2023-05-14T00:33:48;30.67;;;14.63;;
68250;SDS011;55066;51.560;4.642;2023-05-14T00:36:14;28.40;;;14.80;;
68250;SDS011;55066;51.560;4.642;2023-05-14T00:38:39;29.97;;;15.27;;
68250;SDS011;55066;51.560;4.642;2023-05-14T00:41:06;27.40;;;13.85;;
68250;SDS011;55066;51.560;4.642;2023-05-14T00:43:31;27.33;;;13.90;;
68250;SDS011;55066;51.560;4.642;2023-05-14T00:45:57;27.58;;;14.48;;
68250;SDS011;55066;51.560;4.642;2023-05-14T00:48:23;29.50;;;14.93;;
68250;SDS011;55066;51.560;4.642;2023-05-14T00:50:48;30.83;;;14.80;;
68250;SDS011;55066;51.560;4.642;2023-05-14T00:53:15;27.27;;;13.27;;
68250;SDS011;55066;51.560;4.642;2023-05-14T00:55:41;28.15;;;14.25;;
68250;SDS011;55066;51.560;4.642;2023-05-14T00:58:10;27.98;;;14.10;;
68250;SDS011;55066;51.560;4.642;2023-05-14T01:00:37;28.98;;;14.35;;
68250;SDS011;55066;51.560;4.642;2023-05-14T01:03:04;25.95;;;13.80;;
68250;SDS011;55066;51.560;4.642;2023-05-14T01:05:35;32.03;;;14.70;;
68250;SDS011;55066;51.560;4.642;2023-05-14T01:11:16;24.55;;;13.18;;
68250;SDS011;55066;51.560;4.642;2023-05-14T01:16:27;29.30;;;13.45;;
68250;SDS011;55066;51.560;4.642;2023-05-14T01:18:55;28.73;;;13.37;;
68250;SDS011;55066;51.560;4.642;2023-05-14T01:21:38;25.48;;;13.10;;
68250;SDS011;55066;51.560;4.642;2023-05-14T01:24:06;26.73;;;12.77;;
68250;SDS011;55066;51.560;4.642;2023-05-14T01:26:32;25.17;;;13.75;;
68250;SDS011;55066;51.560;4.642;2023-05-14T01:32:00;24.75;;;12.60;;
68250;SDS011;55066;51.560;4.642;2023-05-14T01:34:29;24.17;;;12.80;;
68250;SDS011;55066;51.560;4.642;2023-05-14T01:36:55;24.30;;;12.32;;
68250;SDS011;55066;51.560;4.642;2023-05-14T01:39:22;28.63;;;13.15;;
68250;SDS011;55066;51.560;4.642;2023-05-14T01:41:49;23.10;;;12.55;;
68250;SDS011;55066;51.560;4.642;2023-05-14T01:44:16;24.35;;;12.40;;
68250;SDS011;55066;51.560;4.642;2023-05-14T01:46:43;22.55;;;11.57;;
68250;SDS011;55066;51.560;4.642;2023-05-14T01:49:08;25.53;;;11.87;;
68250;SDS011;55066;51.560;4.642;2023-05-14T01:51:33;25.63;;;12.23;;
68250;SDS011;55066;51.560;4.642;2023-05-14T01:54:01;23.13;;;12.48;;
68250;SDS011;55066;51.560;4.642;2023-05-14T01:56:26;24.50;;;11.65;;
68250;SDS011;55066;51.560;4.642;2023-05-14T01:58:51;28.38;;;12.75;;
68250;SDS011;55066;51.560;4.642;2023-05-14T02:01:17;23.90;;;12.47;;
68250;SDS011;55066;51.560;4.642;2023-05-14T02:03:42;23.23;;;11.43;;
68250;SDS011;55066;51.560;4.642;2023-05-14T02:06:08;25.50;;;11.77;;
68250;SDS011;55066;51.560;4.642;2023-05-14T02:08:33;22.02;;;11.10;;
68250;SDS011;55066;51.560;4.642;2023-05-14T02:10:59;23.97;;;11.83;;
68250;SDS011;55066;51.560;4.642;2023-05-14T02:13:24;25.43;;;12.50;;
68250;SDS011;55066;51.560;4.642;2023-05-14T02:15:50;25.00;;;11.27;;
68250;SDS011;55066;51.560;4.642;2023-05-14T02:18:16;23.87;;;11.43;;
68250;SDS011;55066;51.560;4.642;2023-05-14T02:20:41;22.45;;;11.05;;
68250;SDS011;55066;51.560;4.642;2023-05-14T02:23:07;25.43;;;11.70;;
68250;SDS011;55066;51.560;4.642;2023-05-14T02:25:32;24.83;;;11.53;;
68250;SDS011;55066;51.560;4.642;2023-05-14T02:27:58;25.50;;;12.65;;
68250;SDS011;55066;51.560;4.642;2023-05-14T02:30:23;27.00;;;12.45;;
68250;SDS011;55066;51.560;4.642;2023-05-14T02:32:48;22.93;;;11.97;;
68250;SDS011;55066;51.560;4.642;2023-05-14T02:35:14;23.60;;;11.13;;
68250;SDS011;55066;51.560;4.642;2023-05-14T02:37:39;22.63;;;11.50;;
68250;SDS011;55066;51.560;4.642;2023-05-14T02:40:05;24.13;;;12.18;;
68250;SDS011;55066;51.560;4.642;2023-05-14T02:42:31;21.95;;;11.77;;
68250;SDS011;55066;51.560;4.642;2023-05-14T02:44:57;24.93;;;12.47;;
68250;SDS011;55066;51.560;4.642;2023-05-14T02:47:23;23.60;;;11.45;;
68250;SDS011;55066;51.560;4.642;2023-05-14T02:49:48;25.50;;;11.30;;
68250;SDS011;55066;51.560;4.642;2023-05-14T02:52:14;24.37;;;11.77;;
68250;SDS011;55066;51.560;4.642;2023-05-14T02:54:39;19.83;;;10.70;;
68250;SDS011;55066;51.560;4.642;2023-05-14T02:57:05;23.88;;;11.23;;
68250;SDS011;55066;51.560;4.642;2023-05-14T02:59:30;20.03;;;10.53;;
68250;SDS011;55066;51.560;4.642;2023-05-14T03:01:56;22.87;;;10.77;;
68250;SDS011;55066;51.560;4.642;2023-05-14T03:04:22;23.20;;;10.93;;
68250;SDS011;55066;51.560;4.642;2023-05-14T03:06:47;22.97;;;11.43;;
68250;SDS011;55066;51.560;4.642;2023-05-14T03:09:13;24.50;;;10.85;;
68250;SDS011;55066;51.560;4.642;2023-05-14T03:11:38;23.00;;;11.17;;
68250;SDS011;55066;51.560;4.642;2023-05-14T03:14:04;23.77;;;11.03;;
68250;SDS011;55066;51.560;4.642;2023-05-14T03:16:29;25.25;;;10.60;;
68250;SDS011;55066;51.560;4.642;2023-05-14T03:18:55;21.07;;;10.33;;
68250;SDS011;55066;51.560;4.642;2023-05-14T03:21:20;21.00;;;10.80;;
68250;SDS011;55066;51.560;4.642;2023-05-14T03:23:47;24.10;;;12.32;;
68250;SDS011;55066;51.560;4.642;2023-05-14T03:26:12;25.33;;;11.40;;
68250;SDS011;55066;51.560;4.642;2023-05-14T03:28:38;18.87;;;10.40;;
68250;SDS011;55066;51.560;4.642;2023-05-14T03:31:04;28.13;;;11.45;;
68250;SDS011;55066;51.560;4.642;2023-05-14T03:33:31;24.65;;;11.27;;
68250;SDS011;55066;51.560;4.642;2023-05-14T03:35:57;23.13;;;11.07;;
68250;SDS011;55066;51.560;4.642;2023-05-14T03:38:22;21.30;;;10.47;;
68250;SDS011;55066;51.560;4.642;2023-05-14T03:40:48;23.07;;;10.33;;
68250;SDS011;55066;51.560;4.642;2023-05-14T03:43:13;21.70;;;10.30;;
68250;SDS011;55066;51.560;4.642;2023-05-14T03:45:40;23.83;;;11.65;;
68250;SDS011;55066;51.560;4.642;2023-05-14T03:48:06;24.00;;;11.00;;
68250;SDS011;55066;51.560;4.642;2023-05-14T03:50:32;21.65;;;10.30;;
68250;SDS011;55066;51.560;4.642;2023-05-14T03:52:57;23.57;;;11.10;;
68250;SDS011;55066;51.560;4.642;2023-05-14T03:55:23;25.03;;;11.07;;
68250;SDS011;55066;51.560;4.642;2023-05-14T03:57:48;22.37;;;10.83;;
68250;SDS011;55066;51.560;4.642;2023-05-14T04:00:14;23.90;;;11.23;;
68250;SDS011;55066;51.560;4.642;2023-05-14T04:02:42;25.13;;;12.38;;
68250;SDS011;55066;51.560;4.642;2023-05-14T04:05:08;23.73;;;11.38;;
68250;SDS011;55066;51.560;4.642;2023-05-14T04:07:33;25.67;;;11.40;;
68250;SDS011;55066;51.560;4.642;2023-05-14T04:09:59;27.10;;;11.52;;
68250;SDS011;55066;51.560;4.642;2023-05-14T04:12:26;25.93;;;11.47;;
68250;SDS011;55066;51.560;4.642;2023-05-14T04:14:51;28.27;;;12.50;;
68250;SDS011;55066;51.560;4.642;2023-05-14T04:17:17;21.93;;;11.57;;
68250;SDS011;55066;51.560;4.642;2023-05-14T04:19:42;25.43;;;12.27;;
68250;SDS011;55066;51.560;4.642;2023-05-14T04:22:08;27.17;;;11.63;;
68250;SDS011;55066;51.560;4.642;2023-05-14T04:24:33;26.27;;;11.17;;
68250;SDS011;55066;51.560;4.642;2023-05-14T04:26:59;25.00;;;11.43;;
68250;SDS011;55066;51.560;4.642;2023-05-14T04:29:24;25.53;;;11.83;;
68250;SDS011;55066;51.560;4.642;2023-05-14T04:31:50;25.90;;;12.47;;
68250;SDS011;55066;51.560;4.642;2023-05-14T04:34:15;24.75;;;11.30;;
68250;SDS011;55066;51.560;4.642;2023-05-14T04:36:41;24.30;;;11.83;;
68250;SDS011;55066;51.560;4.642;2023-05-14T04:39:06;24.83;;;11.90;;
68250;SDS011;55066;51.560;4.642;2023-05-14T04:41:34;23.52;;;11.02;;
68250;SDS011;55066;51.560;4.642;2023-05-14T04:44:01;21.77;;;10.75;;
68250;SDS011;55066;51.560;4.642;2023-05-14T04:46:27;23.88;;;11.05;;
68250;SDS011;55066;51.560;4.642;2023-05-14T04:48:53;22.93;;;11.07;;
68250;SDS011;55066;51.560;4.642;2023-05-14T04:51:18;21.97;;;10.27;;
68250;SDS011;55066;51.560;4.642;2023-05-14T04:53:43;22.17;;;11.43;;
68250;SDS011;55066;51.560;4.642;2023-05-14T04:56:09;25.97;;;11.80;;
68250;SDS011;55066;51.560;4.642;2023-05-14T04:58:34;23.67;;;11.80;;
68250;SDS011;55066;51.560;4.642;2023-05-14T05:01:00;26.75;;;12.38;;
68250;SDS011;55066;51.560;4.642;2023-05-14T05:03:26;29.77;;;12.10;;
68250;SDS011;55066;51.560;4.642;2023-05-14T05:05:52;26.70;;;12.25;;
68250;SDS011;55066;51.560;4.642;2023-05-14T05:08:18;28.13;;;13.13;;
68250;SDS011;55066;51.560;4.642;2023-05-14T05:10:43;25.93;;;13.27;;
68250;SDS011;55066;51.560;4.642;2023-05-14T05:13:08;28.33;;;13.07;;
68250;SDS011;55066;51.560;4.642;2023-05-14T05:15:34;28.75;;;13.52;;
68250;SDS011;55066;51.560;4.642;2023-05-14T05:17:59;30.50;;;13.43;;
68250;SDS011;55066;51.560;4.642;2023-05-14T05:20:25;29.83;;;13.63;;
68250;SDS011;55066;51.560;4.642;2023-05-14T05:22:52;28.58;;;13.60;;
68250;SDS011;55066;51.560;4.642;2023-05-14T05:25:18;34.80;;;14.93;;
68250;SDS011;55066;51.560;4.642;2023-05-14T05:27:43;32.40;;;12.67;;
68250;SDS011;55066;51.560;4.642;2023-05-14T05:30:09;32.78;;;13.98;;
68250;SDS011;55066;51.560;4.642;2023-05-14T05:32:35;31.20;;;13.85;;
68250;SDS011;55066;51.560;4.642;2023-05-14T05:35:00;28.85;;;13.30;;
68250;SDS011;55066;51.560;4.642;2023-05-14T05:37:26;27.43;;;12.60;;
68250;SDS011;55066;51.560;4.642;2023-05-14T05:39:52;31.88;;;13.95;;
68250;SDS011;55066;51.560;4.642;2023-05-14T05:42:18;32.00;;;13.30;;
68250;SDS011;55066;51.560;4.642;2023-05-14T05:44:43;31.05;;;13.43;;
68250;SDS011;55066;51.560;4.642;2023-05-14T05:47:09;27.40;;;12.40;;
68250;SDS011;55066;51.560;4.642;2023-05-14T05:49:34;31.35;;;14.07;;
68250;SDS011;55066;51.560;4.642;2023-05-14T05:52:01;29.77;;;12.80;;
68250;SDS011;55066;51.560;4.642;2023-05-14T05:54:28;28.45;;;12.75;;
68250;SDS011;55066;51.560;4.642;2023-05-14T05:56:56;30.00;;;12.95;;
68250;SDS011;55066;51.560;4.642;2023-05-14T05:59:23;27.55;;;12.35;;
68250;SDS011;55066;51.560;4.642;2023-05-14T06:01:48;28.60;;;12.88;;
68250;SDS011;55066;51.560;4.642;2023-05-14T06:04:14;24.77;;;11.93;;
68250;SDS011;55066;51.560;4.642;2023-05-14T06:06:40;28.27;;;13.73;;
68250;SDS011;55066;51.560;4.642;2023-05-14T06:09:06;30.70;;;13.20;;
68250;SDS011;55066;51.560;4.642;2023-05-14T06:11:34;24.85;;;12.73;;
68250;SDS011;55066;51.560;4.642;2023-05-14T06:14:00;29.80;;;13.00;;
68250;SDS011;55066;51.560;4.642;2023-05-14T06:16:25;27.27;;;12.00;;
68250;SDS011;55066;51.560;4.642;2023-05-14T06:18:51;28.80;;;12.35;;
68250;SDS011;55066;51.560;4.642;2023-05-14T06:21:18;29.02;;;12.63;;
68250;SDS011;55066;51.560;4.642;2023-05-14T06:23:43;28.53;;;12.07;;
68250;SDS011;55066;51.560;4.642;2023-05-14T06:26:09;27.23;;;12.43;;
68250;SDS011;55066;51.560;4.642;2023-05-14T06:28:34;27.57;;;12.53;;
68250;SDS011;55066;51.560;4.642;2023-05-14T06:31:00;33.80;;;12.77;;
68250;SDS011;55066;51.560;4.642;2023-05-14T06:33:25;26.97;;;12.60;;
68250;SDS011;55066;51.560;4.642;2023-05-14T06:35:55;26.90;;;12.13;;
68250;SDS011;55066;51.560;4.642;2023-05-14T06:38:22;26.23;;;11.90;;
68250;SDS011;55066;51.560;4.642;2023-05-14T06:40:48;28.92;;;11.93;;
68250;SDS011;55066;51.560;4.642;2023-05-14T06:43:13;27.87;;;12.23;;
68250;SDS011;55066;51.560;4.642;2023-05-14T06:45:38;26.47;;;12.20;;
68250;SDS011;55066;51.560;4.642;2023-05-14T06:48:04;28.50;;;12.13;;
68250;SDS011;55066;51.560;4.642;2023-05-14T06:50:29;28.02;;;12.10;;
68250;SDS011;55066;51.560;4.642;2023-05-14T06:52:55;25.00;;;10.60;;
68250;SDS011;55066;51.560;4.642;2023-05-14T06:55:20;24.20;;;11.23;;
68250;SDS011;55066;51.560;4.642;2023-05-14T06:57:46;24.60;;;11.37;;
68250;SDS011;55066;51.560;4.642;2023-05-14T07:00:15;27.17;;;11.60;;
68250;SDS011;55066;51.560;4.642;2023-05-14T07:02:41;22.92;;;9.98;;
68250;SDS011;55066;51.560;4.642;2023-05-14T07:05:10;22.45;;;10.05;;
68250;SDS011;55066;51.560;4.642;2023-05-14T07:07:36;23.75;;;11.02;;
68250;SDS011;55066;51.560;4.642;2023-05-14T07:10:02;23.97;;;10.90;;
68250;SDS011;55066;51.560;4.642;2023-05-14T07:12:27;23.83;;;10.93;;
68250;SDS011;55066;51.560;4.642;2023-05-14T07:14:53;22.88;;;10.48;;
68250;SDS011;55066;51.560;4.642;2023-05-14T07:17:18;26.63;;;10.77;;
68250;SDS011;55066;51.560;4.642;2023-05-14T07:19:43;26.53;;;11.70;;
68250;SDS011;55066;51.560;4.642;2023-05-14T07:22:09;19.80;;;10.43;;
68250;SDS011;55066;51.560;4.642;2023-05-14T07:24:34;23.77;;;10.50;;
68250;SDS011;55066;51.560;4.642;2023-05-14T07:27:00;23.65;;;11.75;;
68250;SDS011;55066;51.560;4.642;2023-05-14T07:29:26;23.73;;;11.50;;
68250;SDS011;55066;51.560;4.642;2023-05-14T07:31:51;22.95;;;11.48;;
68250;SDS011;55066;51.560;4.642;2023-05-14T07:34:17;21.77;;;11.17;;
68250;SDS011;55066;51.560;4.642;2023-05-14T07:36:43;24.23;;;11.38;;
68250;SDS011;55066;51.560;4.642;2023-05-14T07:39:09;21.88;;;11.43;;
68250;SDS011;55066;51.560;4.642;2023-05-14T07:41:34;22.33;;;12.13;;
68250;SDS011;55066;51.560;4.642;2023-05-14T07:44:00;24.33;;;12.60;;
68250;SDS011;55066;51.560;4.642;2023-05-14T07:46:25;23.30;;;11.87;;
68250;SDS011;55066;51.560;4.642;2023-05-14T07:48:51;24.73;;;12.63;;
68250;SDS011;55066;51.560;4.642;2023-05-14T07:51:17;27.55;;;12.57;;
68250;SDS011;55066;51.560;4.642;2023-05-14T07:53:45;28.87;;;13.43;;
68250;SDS011;55066;51.560;4.642;2023-05-14T07:56:10;27.05;;;12.52;;
68250;SDS011;55066;51.560;4.642;2023-05-14T07:58:36;27.80;;;12.87;;
68250;SDS011;55066;51.560;4.642;2023-05-14T08:01:01;25.45;;;12.18;;
68250;SDS011;55066;51.560;4.642;2023-05-14T08:03:38;27.17;;;13.25;;
68250;SDS011;55066;51.560;4.642;2023-05-14T08:06:06;25.43;;;12.93;;
68250;SDS011;55066;51.560;4.642;2023-05-14T08:08:32;28.55;;;13.95;;
68250;SDS011;55066;51.560;4.642;2023-05-14T08:11:00;24.35;;;13.02;;
68250;SDS011;55066;51.560;4.642;2023-05-14T08:13:36;23.92;;;13.25;;
68250;SDS011;55066;51.560;4.642;2023-05-14T08:16:01;25.67;;;13.10;;
68250;SDS011;55066;51.560;4.642;2023-05-14T08:18:27;25.70;;;13.80;;
68250;SDS011;55066;51.560;4.642;2023-05-14T08:20:52;24.75;;;13.18;;
68250;SDS011;55066;51.560;4.642;2023-05-14T08:23:18;27.83;;;13.70;;
68250;SDS011;55066;51.560;4.642;2023-05-14T08:25:43;27.43;;;13.10;;
68250;SDS011;55066;51.560;4.642;2023-05-14T08:28:09;24.53;;;13.83;;
68250;SDS011;55066;51.560;4.642;2023-05-14T08:30:34;28.60;;;13.67;;
68250;SDS011;55066;51.560;4.642;2023-05-14T08:33:00;24.60;;;12.33;;
68250;SDS011;55066;51.560;4.642;2023-05-14T08:35:25;23.10;;;11.47;;
68250;SDS011;55066;51.560;4.642;2023-05-14T08:37:51;27.23;;;13.65;;
68250;SDS011;55066;51.560;4.642;2023-05-14T08:40:17;29.43;;;13.83;;
68250;SDS011;55066;51.560;4.642;2023-05-14T08:42:43;27.55;;;13.73;;
68250;SDS011;55066;51.560;4.642;2023-05-14T08:45:16;28.60;;;13.77;;
68250;SDS011;55066;51.560;4.642;2023-05-14T08:47:45;32.37;;;14.87;;
68250;SDS011;55066;51.560;4.642;2023-05-14T08:50:13;28.60;;;14.10;;
68250;SDS011;55066;51.560;4.642;2023-05-14T08:52:39;28.92;;;14.27;;
68250;SDS011;55066;51.560;4.642;2023-05-14T08:55:05;26.63;;;14.20;;
68250;SDS011;55066;51.560;4.642;2023-05-14T08:57:32;26.20;;;13.70;;
68250;SDS011;55066;51.560;4.642;2023-05-14T08:59:58;28.40;;;14.68;;
68250;SDS011;55066;51.560;4.642;2023-05-14T09:02:28;27.58;;;14.05;;
68250;SDS011;55066;51.560;4.642;2023-05-14T09:04:56;26.67;;;13.60;;
68250;SDS011;55066;51.560;4.642;2023-05-14T09:07:23;28.53;;;14.30;;
68250;SDS011;55066;51.560;4.642;2023-05-14T09:09:52;29.65;;;14.60;;
68250;SDS011;55066;51.560;4.642;2023-05-14T09:12:19;25.50;;;13.48;;
68250;SDS011;55066;51.560;4.642;2023-05-14T09:14:46;25.05;;;12.75;;
68250;SDS011;55066;51.560;4.642;2023-05-14T09:17:12;22.33;;;12.27;;
68250;SDS011;55066;51.560;4.642;2023-05-14T09:19:38;24.83;;;13.27;;
68250;SDS011;55066;51.560;4.642;2023-05-14T09:22:07;27.85;;;12.80;;
68250;SDS011;55066;51.560;4.642;2023-05-14T09:24:33;24.95;;;12.88;;
68250;SDS011;55066;51.560;4.642;2023-05-14T09:27:00;26.90;;;13.17;;
68250;SDS011;55066;51.560;4.642;2023-05-14T09:29:27;24.00;;;13.45;;
68250;SDS011;55066;51.560;4.642;2023-05-14T09:31:54;25.40;;;12.32;;
68250;SDS011;55066;51.560;4.642;2023-05-14T09:34:24;24.07;;;12.70;;
68250;SDS011;55066;51.560;4.642;2023-05-14T09:36:55;26.05;;;12.90;;
68250;SDS011;55066;51.560;4.642;2023-05-14T09:39:22;24.50;;;12.88;;
68250;SDS011;55066;51.560;4.642;2023-05-14T09:41:48;27.92;;;13.48;;
68250;SDS011;55066;51.560;4.642;2023-05-14T09:44:16;22.95;;;12.95;;
68250;SDS011;55066;51.560;4.642;2023-05-14T09:46:41;28.17;;;13.83;;
68250;SDS011;55066;51.560;4.642;2023-05-14T09:49:10;27.02;;;13.60;;
68250;SDS011;55066;51.560;4.642;2023-05-14T09:51:36;26.00;;;14.40;;
68250;SDS011;55066;51.560;4.642;2023-05-14T09:54:02;28.63;;;14.70;;
68250;SDS011;55066;51.560;4.642;2023-05-14T09:56:28;27.00;;;14.38;;
68250;SDS011;55066;51.560;4.642;2023-05-14T09:58:54;23.65;;;13.13;;
68250;SDS011;55066;51.560;4.642;2023-05-14T10:01:20;30.33;;;15.27;;
68250;SDS011;55066;51.560;4.642;2023-05-14T10:03:46;26.23;;;13.82;;
68250;SDS011;55066;51.560;4.642;2023-05-14T10:06:13;29.38;;;14.00;;
68250;SDS011;55066;51.560;4.642;2023-05-14T10:08:45;27.50;;;14.57;;
68250;SDS011;55066;51.560;4.642;2023-05-14T10:11:23;26.70;;;13.63;;
68250;SDS011;55066;51.560;4.642;2023-05-14T10:14:27;28.17;;;14.20;;
68250;SDS011;55066;51.560;4.642;2023-05-14T10:17:18;24.95;;;13.35;;
68250;SDS011;55066;51.560;4.642;2023-05-14T10:19:47;25.02;;;14.32;;
68250;SDS011;55066;51.560;4.642;2023-05-14T10:22:17;27.40;;;14.50;;
68250;SDS011;55066;51.560;4.642;2023-05-14T10:24:47;25.80;;;13.67;;
68250;SDS011;55066;51.560;4.642;2023-05-14T10:27:17;26.13;;;14.20;;
68250;SDS011;55066;51.560;4.642;2023-05-14T10:29:47;23.02;;;13.27;;
68250;SDS011;55066;51.560;4.642;2023-05-14T10:32:17;26.10;;;14.35;;
68250;SDS011;55066;51.560;4.642;2023-05-14T10:34:45;23.98;;;13.65;;
68250;SDS011;55066;51.560;4.642;2023-05-14T10:37:20;25.43;;;13.43;;
68250;SDS011;55066;51.560;4.642;2023-05-14T10:45:00;28.13;;;15.20;;
68250;SDS011;55066;51.560;4.642;2023-05-14T10:47:30;28.08;;;15.23;;
68250;SDS011;55066;51.560;4.642;2023-05-14T10:49:57;25.92;;;14.85;;
68250;SDS011;55066;51.560;4.642;2023-05-14T10:52:25;25.90;;;13.87;;
68250;SDS011;55066;51.560;4.642;2023-05-14T10:54:52;24.48;;;13.85;;
68250;SDS011;55066;51.560;4.642;2023-05-14T10:57:23;29.23;;;14.93;;
68250;SDS011;55066;51.560;4.642;2023-05-14T10:59:51;25.98;;;14.73;;
68250;SDS011;55066;51.560;4.642;2023-05-14T11:02:19;26.10;;;14.35;;
68250;SDS011;55066;51.560;4.642;2023-05-14T11:07:45;24.58;;;14.02;;
68250;SDS011;55066;51.560;4.642;2023-05-14T11:10:13;27.33;;;14.25;;
68250;SDS011;55066;51.560;4.642;2023-05-14T11:12:44;27.00;;;13.43;;
68250;SDS011;55066;51.560;4.642;2023-05-14T11:15:12;26.52;;;14.02;;
68250;SDS011;55066;51.560;4.642;2023-05-14T11:17:39;21.13;;;12.47;;
68250;SDS011;55066;51.560;4.642;2023-05-14T11:20:07;23.83;;;12.98;;
68250;SDS011;55066;51.560;4.642;2023-05-14T11:22:34;23.08;;;12.52;;
68250;SDS011;55066;51.560;4.642;2023-05-14T11:25:00;20.27;;;12.48;;
68250;SDS011;55066;51.560;4.642;2023-05-14T11:27:26;24.07;;;12.87;;
68250;SDS011;55066;51.560;4.642;2023-05-14T11:29:51;22.20;;;12.35;;
68250;SDS011;55066;51.560;4.642;2023-05-14T11:32:17;20.17;;;12.37;;
68250;SDS011;55066;51.560;4.642;2023-05-14T11:34:43;20.60;;;12.48;;
68250;SDS011;55066;51.560;4.642;2023-05-14T11:37:10;20.77;;;11.88;;
68250;SDS011;55066;51.560;4.642;2023-05-14T11:39:37;22.13;;;11.73;;
68250;SDS011;55066;51.560;4.642;2023-05-14T11:42:12;22.00;;;12.48;;
68250;SDS011;55066;51.560;4.642;2023-05-14T11:44:40;18.35;;;12.10;;
68250;SDS011;55066;51.560;4.642;2023-05-14T11:47:08;19.83;;;11.40;;
68250;SDS011;55066;51.560;4.642;2023-05-14T11:49:34;18.65;;;12.35;;
68250;SDS011;55066;51.560;4.642;2023-05-14T11:52:02;19.10;;;11.50;;
68250;SDS011;55066;51.560;4.642;2023-05-14T11:54:30;21.63;;;11.98;;
68250;SDS011;55066;51.560;4.642;2023-05-14T11:56:57;17.67;;;11.82;;
68250;SDS011;55066;51.560;4.642;2023-05-14T11:59:28;17.88;;;11.70;;
68250;SDS011;55066;51.560;4.642;2023-05-14T12:01:55;17.42;;;11.50;;
68250;SDS011;55066;51.560;4.642;2023-05-14T12:04:22;17.93;;;11.37;;
68250;SDS011;55066;51.560;4.642;2023-05-14T12:06:47;17.88;;;12.00;;
68250;SDS011;55066;51.560;4.642;2023-05-14T12:09:20;17.60;;;11.45;;
68250;SDS011;55066;51.560;4.642;2023-05-14T12:11:47;18.40;;;10.90;;
68250;SDS011;55066;51.560;4.642;2023-05-14T12:14:18;16.15;;;11.00;;
68250;SDS011;55066;51.560;4.642;2023-05-14T12:16:45;16.50;;;10.55;;
68250;SDS011;55066;51.560;4.642;2023-05-14T12:19:12;18.40;;;11.40;;
68250;SDS011;55066;51.560;4.642;2023-05-14T12:21:39;20.15;;;11.23;;
68250;SDS011;55066;51.560;4.642;2023-05-14T12:24:14;19.17;;;11.17;;
68250;SDS011;55066;51.560;4.642;2023-05-14T12:26:49;16.83;;;11.23;;
68250;SDS011;55066;51.560;4.642;2023-05-14T12:29:16;16.48;;;10.60;;
68250;SDS011;55066;51.560;4.642;2023-05-14T12:31:45;19.70;;;10.67;;
68250;SDS011;55066;51.560;4.642;2023-05-14T12:34:15;21.73;;;11.70;;
68250;SDS011;55066;51.560;4.642;2023-05-14T12:36:41;19.63;;;11.70;;
68250;SDS011;55066;51.560;4.642;2023-05-14T12:39:08;19.88;;;10.15;;
68250;SDS011;55066;51.560;4.642;2023-05-14T12:41:34;16.40;;;10.37;;
68250;SDS011;55066;51.560;4.642;2023-05-14T12:44:00;15.88;;;11.02;;
68250;SDS011;55066;51.560;4.642;2023-05-14T12:46:27;17.80;;;11.48;;
68250;SDS011;55066;51.560;4.642;2023-05-14T12:48:53;15.90;;;10.50;;
68250;SDS011;55066;51.560;4.642;2023-05-14T12:51:19;16.63;;;10.07;;
68250;SDS011;55066;51.560;4.642;2023-05-14T12:53:45;15.75;;;10.13;;
68250;SDS011;55066;51.560;4.642;2023-05-14T12:56:10;14.93;;;9.63;;
68250;SDS011;55066;51.560;4.642;2023-05-14T12:58:36;14.43;;;8.77;;
68250;SDS011;55066;51.560;4.642;2023-05-14T13:01:03;15.90;;;9.13;;
68250;SDS011;55066;51.560;4.642;2023-05-14T13:03:29;12.82;;;8.25;;
68250;SDS011;55066;51.560;4.642;2023-05-14T13:05:55;18.52;;;9.73;;
68250;SDS011;55066;51.560;4.642;2023-05-14T13:08:21;13.60;;;9.03;;
68250;SDS011;55066;51.560;4.642;2023-05-14T13:10:49;13.70;;;8.93;;
68250;SDS011;55066;51.560;4.642;2023-05-14T13:13:21;15.95;;;8.55;;
68250;SDS011;55066;51.560;4.642;2023-05-14T13:15:47;13.55;;;8.80;;
68250;SDS011;55066;51.560;4.642;2023-05-14T13:18:16;13.80;;;8.50;;
68250;SDS011;55066;51.560;4.642;2023-05-14T13:20:41;15.80;;;8.63;;
68250;SDS011;55066;51.560;4.642;2023-05-14T13:23:09;17.10;;;8.00;;
68250;SDS011;55066;51.560;4.642;2023-05-14T13:25:35;13.90;;;8.90;;
68250;SDS011;55066;51.560;4.642;2023-05-14T13:28:00;11.50;;;8.10;;
68250;SDS011;55066;51.560;4.642;2023-05-14T13:30:26;14.30;;;8.70;;
68250;SDS011;55066;51.560;4.642;2023-05-14T13:32:52;13.50;;;8.20;;
68250;SDS011;55066;51.560;4.642;2023-05-14T13:35:17;17.25;;;8.63;;
68250;SDS011;55066;51.560;4.642;2023-05-14T13:37:45;14.15;;;8.10;;
68250;SDS011;55066;51.560;4.642;2023-05-14T13:40:11;16.40;;;9.03;;
68250;SDS011;55066;51.560;4.642;2023-05-14T13:43:02;16.98;;;8.23;;
68250;SDS011;55066;51.560;4.642;2023-05-14T13:45:28;12.97;;;8.37;;
68250;SDS011;55066;51.560;4.642;2023-05-14T13:47:53;13.13;;;8.10;;
68250;SDS011;55066;51.560;4.642;2023-05-14T13:50:20;15.03;;;8.70;;
68250;SDS011;55066;51.560;4.642;2023-05-14T13:52:46;13.15;;;8.18;;
68250;SDS011;55066;51.560;4.642;2023-05-14T13:55:11;15.93;;;7.97;;
68250;SDS011;55066;51.560;4.642;2023-05-14T13:57:38;19.97;;;8.40;;
68250;SDS011;55066;51.560;4.642;2023-05-14T14:00:04;14.30;;;8.00;;
68250;SDS011;55066;51.560;4.642;2023-05-14T14:02:30;13.75;;;7.82;;
68250;SDS011;55066;51.560;4.642;2023-05-14T14:04:56;14.97;;;8.37;;
68250;SDS011;55066;51.560;4.642;2023-05-14T14:07:24;12.52;;;7.40;;
68250;SDS011;55066;51.560;4.642;2023-05-14T14:09:49;13.43;;;7.90;;
68250;SDS011;55066;51.560;4.642;2023-05-14T14:12:15;14.00;;;7.47;;
68250;SDS011;55066;51.560;4.642;2023-05-14T14:14:41;11.27;;;7.57;;
68250;SDS011;55066;51.560;4.642;2023-05-14T14:17:06;11.57;;;6.63;;
68250;SDS011;55066;51.560;4.642;2023-05-14T14:19:34;12.83;;;7.33;;
68250;SDS011;55066;51.560;4.642;2023-05-14T14:22:00;16.80;;;8.10;;
68250;SDS011;55066;51.560;4.642;2023-05-14T14:24:25;11.40;;;7.57;;
68250;SDS011;55066;51.560;4.642;2023-05-14T14:26:51;17.33;;;8.20;;
68250;SDS011;55066;51.560;4.642;2023-05-14T14:29:16;13.80;;;7.57;;
68250;SDS011;55066;51.560;4.642;2023-05-14T14:31:42;14.57;;;8.30;;
68250;SDS011;55066;51.560;4.642;2023-05-14T14:34:07;13.60;;;7.50;;
68250;SDS011;55066;51.560;4.642;2023-05-14T14:36:33;26.30;;;15.07;;
68250;SDS011;55066;51.560;4.642;2023-05-14T14:38:58;40.93;;;23.23;;